Pagina principală
METAR-TAF:

METAR-TAF

Aeroporturi :

Nanjing, China

Latitudine: 32-00N, longitudine: 118-48E, elevație: 12 m

Observații meteo curente

Raportul a fost făcut în urmă cu 1 oră și 6 de minute, la 12:00 UTC
Vânt 8 kt de la Sud-est
Temperatură 30°C
Umiditate 49%
Presiune 1006 hPa
Vizibilitate de 10 km sau mai mult
nu există nori sub 1.500 m și nici cumulonimbus

METAR: ZSNJ 161200Z 13004MPS CAVOK 30/18 Q1006 NOSIG

Ora: 21:06 (13:06 UTC)

Prognoză

Raportul a fost făcut în urmă cu 4 ore și 4 de minute, la 09:02 UTC
Prognoză valabilă de la 16 ora 12 UTC la 17 ora 12 UTC
Vânt 8 kt de la Est
Vizibilitate: 3000 m
aer cețos,

TAF: ZSNJ 160902Z 1612/1712 10004MPS 3000 BR NSC TX33/1706Z TN23/1621Z

Observații și prognoze meteo pentru peste 4.000 de aeroporturi (rapoarte METAR și TAF).

Stațiile disponibile sunt reprezentate pe hartă prin puncte galbene și roșii.

Țineți indicatorul mouse-ului pe punctul dorit pentru a vedea denumirea stației.

Apoi, faceți clic pentru a vedea observațiile și prognozele meteorologice.

Pentru a schimba harta: Pentru mărire, faceți clic pe butoanele verzi cu cruce neagră; pentru micșorare, pe butonul verde cu o liniuță; pentru hărți învecinate, pe săgețile verzi.


METAR-TAF: